sensor_id;sensor_type;location;lat;lon;timestamp;temperature;humidity
9225;DHT22;4647;48.072;11.616;2022-09-03T00:01:36;13.00;99.90
9225;DHT22;4647;48.072;11.616;2022-09-03T00:04:09;13.00;99.90
9225;DHT22;4647;48.072;11.616;2022-09-03T00:06:42;12.90;99.90
9225;DHT22;4647;48.072;11.616;2022-09-03T00:09:14;12.80;99.90
9225;DHT22;4647;48.072;11.616;2022-09-03T00:11:51;12.60;99.90
9225;DHT22;4647;48.072;11.616;2022-09-03T00:14:24;12.60;99.90
9225;DHT22;4647;48.072;11.616;2022-09-03T00:16:58;12.60;99.90
9225;DHT22;4647;48.072;11.616;2022-09-03T00:19:30;12.80;99.90
9225;DHT22;4647;48.072;11.616;2022-09-03T00:22:03;13.10;99.90
9225;DHT22;4647;48.072;11.616;2022-09-03T00:24:35;13.00;99.90
9225;DHT22;4647;48.072;11.616;2022-09-03T00:27:08;12.90;99.90
9225;DHT22;4647;48.072;11.616;2022-09-03T00:29:40;12.70;99.90
9225;DHT22;4647;48.072;11.616;2022-09-03T00:32:13;12.50;99.90
9225;DHT22;4647;48.072;11.616;2022-09-03T00:34:45;12.50;99.90
9225;DHT22;4647;48.072;11.616;2022-09-03T00:37:16;12.50;99.90
9225;DHT22;4647;48.072;11.616;2022-09-03T00:39:43;12.60;99.90
9225;DHT22;4647;48.072;11.616;2022-09-03T00:42:27;12.60;99.90
9225;DHT22;4647;48.072;11.616;2022-09-03T00:45:07;12.70;99.90
9225;DHT22;4647;48.072;11.616;2022-09-03T00:47:45;12.70;99.90
9225;DHT22;4647;48.072;11.616;2022-09-03T00:50:21;12.50;99.90
9225;DHT22;4647;48.072;11.616;2022-09-03T00:52:58;12.40;99.90
9225;DHT22;4647;48.072;11.616;2022-09-03T00:55:33;12.30;99.90
9225;DHT22;4647;48.072;11.616;2022-09-03T00:58:24;12.20;99.90
9225;DHT22;4647;48.072;11.616;2022-09-03T01:00:54;12.20;99.90
9225;DHT22;4647;48.072;11.616;2022-09-03T01:03:29;12.30;99.90
9225;DHT22;4647;48.072;11.616;2022-09-03T01:06:10;12.40;99.90
9225;DHT22;4647;48.072;11.616;2022-09-03T01:08:52;12.30;99.90
9225;DHT22;4647;48.072;11.616;2022-09-03T01:11:31;12.10;99.90
9225;DHT22;4647;48.072;11.616;2022-09-03T01:14:09;11.90;99.90
9225;DHT22;4647;48.072;11.616;2022-09-03T01:16:45;11.90;99.90
9225;DHT22;4647;48.072;11.616;2022-09-03T01:19:31;12.00;99.90
9225;DHT22;4647;48.072;11.616;2022-09-03T01:22:15;11.90;99.90
9225;DHT22;4647;48.072;11.616;2022-09-03T01:27:57;11.90;99.90
9225;DHT22;4647;48.072;11.616;2022-09-03T01:30:25;12.00;99.90
9225;DHT22;4647;48.072;11.616;2022-09-03T01:32:58;12.10;99.90
9225;DHT22;4647;48.072;11.616;2022-09-03T01:35:34;12.00;99.90
9225;DHT22;4647;48.072;11.616;2022-09-03T01:38:15;11.90;99.90
9225;DHT22;4647;48.072;11.616;2022-09-03T01:40:52;11.80;99.90
9225;DHT22;4647;48.072;11.616;2022-09-03T01:43:35;11.80;99.90
9225;DHT22;4647;48.072;11.616;2022-09-03T01:46:08;11.60;99.90
9225;DHT22;4647;48.072;11.616;2022-09-03T01:48:43;11.50;99.90
9225;DHT22;4647;48.072;11.616;2022-09-03T01:51:19;11.50;99.90
9225;DHT22;4647;48.072;11.616;2022-09-03T01:56:59;11.60;99.90
9225;DHT22;4647;48.072;11.616;2022-09-03T01:59:36;11.50;99.90
9225;DHT22;4647;48.072;11.616;2022-09-03T02:02:09;11.50;99.90
9225;DHT22;4647;48.072;11.616;2022-09-03T02:04:56;11.70;99.90
9225;DHT22;4647;48.072;11.616;2022-09-03T02:07:25;11.70;99.90
9225;DHT22;4647;48.072;11.616;2022-09-03T02:09:58;11.50;99.90
9225;DHT22;4647;48.072;11.616;2022-09-03T02:12:25;11.40;99.90
9225;DHT22;4647;48.072;11.616;2022-09-03T02:14:54;11.40;99.90
9225;DHT22;4647;48.072;11.616;2022-09-03T02:17:21;11.30;99.90
9225;DHT22;4647;48.072;11.616;2022-09-03T02:19:49;11.30;99.90
9225;DHT22;4647;48.072;11.616;2022-09-03T02:22:16;11.20;99.90
9225;DHT22;4647;48.072;11.616;2022-09-03T02:24:43;11.40;99.90
9225;DHT22;4647;48.072;11.616;2022-09-03T02:27:10;11.30;99.90
9225;DHT22;4647;48.072;11.616;2022-09-03T02:29:37;11.30;99.90
9225;DHT22;4647;48.072;11.616;2022-09-03T02:32:05;11.20;99.90
9225;DHT22;4647;48.072;11.616;2022-09-03T02:34:32;11.10;99.90
9225;DHT22;4647;48.072;11.616;2022-09-03T02:36:59;11.00;99.90
9225;DHT22;4647;48.072;11.616;2022-09-03T02:39:26;10.90;99.90
9225;DHT22;4647;48.072;11.616;2022-09-03T02:41:54;11.10;99.90
9225;DHT22;4647;48.072;11.616;2022-09-03T02:44:26;11.20;99.90
9225;DHT22;4647;48.072;11.616;2022-09-03T02:46:58;11.20;99.90
9225;DHT22;4647;48.072;11.616;2022-09-03T02:49:27;11.20;99.90
9225;DHT22;4647;48.072;11.616;2022-09-03T02:51:57;11.10;99.90
9225;DHT22;4647;48.072;11.616;2022-09-03T02:54:25;11.30;99.90
9225;DHT22;4647;48.072;11.616;2022-09-03T02:56:52;11.50;99.90
9225;DHT22;4647;48.072;11.616;2022-09-03T02:59:19;11.40;99.90
9225;DHT22;4647;48.072;11.616;2022-09-03T03:01:47;11.40;99.90
9225;DHT22;4647;48.072;11.616;2022-09-03T03:04:14;11.10;99.90
9225;DHT22;4647;48.072;11.616;2022-09-03T03:06:42;11.00;99.90
9225;DHT22;4647;48.072;11.616;2022-09-03T03:09:09;10.90;99.90
9225;DHT22;4647;48.072;11.616;2022-09-03T03:11:36;10.80;99.90
9225;DHT22;4647;48.072;11.616;2022-09-03T03:14:05;10.90;99.90
9225;DHT22;4647;48.072;11.616;2022-09-03T03:16:32;11.20;99.90
9225;DHT22;4647;48.072;11.616;2022-09-03T03:18:59;11.30;99.90
9225;DHT22;4647;48.072;11.616;2022-09-03T03:21:26;11.60;99.90
9225;DHT22;4647;48.072;11.616;2022-09-03T03:23:54;11.50;99.90
9225;DHT22;4647;48.072;11.616;2022-09-03T03:26:21;11.30;99.90
9225;DHT22;4647;48.072;11.616;2022-09-03T03:28:49;11.40;99.90
9225;DHT22;4647;48.072;11.616;2022-09-03T03:31:19;11.50;99.90
9225;DHT22;4647;48.072;11.616;2022-09-03T03:33:50;11.70;99.90
9225;DHT22;4647;48.072;11.616;2022-09-03T03:36:18;11.70;99.90
9225;DHT22;4647;48.072;11.616;2022-09-03T03:38:45;11.50;99.90
9225;DHT22;4647;48.072;11.616;2022-09-03T03:41:15;11.60;99.90
9225;DHT22;4647;48.072;11.616;2022-09-03T03:43:43;11.40;99.90
9225;DHT22;4647;48.072;11.616;2022-09-03T03:46:10;11.40;99.90
9225;DHT22;4647;48.072;11.616;2022-09-03T03:48:38;11.60;99.90
9225;DHT22;4647;48.072;11.616;2022-09-03T03:51:06;11.50;99.90
9225;DHT22;4647;48.072;11.616;2022-09-03T03:53:35;11.50;99.90
9225;DHT22;4647;48.072;11.616;2022-09-03T03:56:04;11.50;99.90
9225;DHT22;4647;48.072;11.616;2022-09-03T03:58:33;11.30;99.90
9225;DHT22;4647;48.072;11.616;2022-09-03T04:01:04;11.40;99.90
9225;DHT22;4647;48.072;11.616;2022-09-03T04:03:32;11.30;99.90
9225;DHT22;4647;48.072;11.616;2022-09-03T04:05:59;11.10;99.90
9225;DHT22;4647;48.072;11.616;2022-09-03T04:08:27;10.90;99.90
9225;DHT22;4647;48.072;11.616;2022-09-03T04:10:59;10.70;99.90
9225;DHT22;4647;48.072;11.616;2022-09-03T04:13:28;10.70;99.90
9225;DHT22;4647;48.072;11.616;2022-09-03T04:16:01;10.90;99.90
9225;DHT22;4647;48.072;11.616;2022-09-03T04:18:28;11.00;99.90
9225;DHT22;4647;48.072;11.616;2022-09-03T04:20:59;11.30;99.90
9225;DHT22;4647;48.072;11.616;2022-09-03T04:23:29;11.30;99.90
9225;DHT22;4647;48.072;11.616;2022-09-03T04:25:56;11.20;99.90
9225;DHT22;4647;48.072;11.616;2022-09-03T04:28:23;11.20;99.90
9225;DHT22;4647;48.072;11.616;2022-09-03T04:30:50;11.30;99.90
9225;DHT22;4647;48.072;11.616;2022-09-03T04:33:19;11.40;99.90
9225;DHT22;4647;48.072;11.616;2022-09-03T04:35:47;11.40;99.90
9225;DHT22;4647;48.072;11.616;2022-09-03T04:38:14;11.50;99.90
9225;DHT22;4647;48.072;11.616;2022-09-03T04:40:41;11.60;99.90
9225;DHT22;4647;48.072;11.616;2022-09-03T04:43:08;11.50;99.90
9225;DHT22;4647;48.072;11.616;2022-09-03T04:45:35;11.50;99.90
9225;DHT22;4647;48.072;11.616;2022-09-03T04:48:03;11.80;99.90
9225;DHT22;4647;48.072;11.616;2022-09-03T04:50:32;12.00;99.90
9225;DHT22;4647;48.072;11.616;2022-09-03T04:53:01;12.10;99.90
9225;DHT22;4647;48.072;11.616;2022-09-03T04:55:32;12.10;99.90
9225;DHT22;4647;48.072;11.616;2022-09-03T04:57:59;12.20;99.90
9225;DHT22;4647;48.072;11.616;2022-09-03T05:00:29;12.40;99.90
9225;DHT22;4647;48.072;11.616;2022-09-03T05:02:59;12.50;99.90
9225;DHT22;4647;48.072;11.616;2022-09-03T05:05:27;12.80;99.90
9225;DHT22;4647;48.072;11.616;2022-09-03T05:07:58;13.00;99.90
9225;DHT22;4647;48.072;11.616;2022-09-03T05:10:26;13.00;99.90
9225;DHT22;4647;48.072;11.616;2022-09-03T05:12:58;13.10;99.90
9225;DHT22;4647;48.072;11.616;2022-09-03T05:15:25;13.30;99.90
9225;DHT22;4647;48.072;11.616;2022-09-03T05:17:55;13.20;99.90
9225;DHT22;4647;48.072;11.616;2022-09-03T05:20:22;13.40;99.90
9225;DHT22;4647;48.072;11.616;2022-09-03T05:22:49;13.50;99.90
9225;DHT22;4647;48.072;11.616;2022-09-03T05:25:18;13.60;99.90
9225;DHT22;4647;48.072;11.616;2022-09-03T05:27:45;13.80;99.90
9225;DHT22;4647;48.072;11.616;2022-09-03T05:30:12;13.80;99.90
9225;DHT22;4647;48.072;11.616;2022-09-03T05:32:39;13.90;99.90
9225;DHT22;4647;48.072;11.616;2022-09-03T05:35:08;14.00;99.90
9225;DHT22;4647;48.072;11.616;2022-09-03T05:37:35;14.00;99.90
9225;DHT22;4647;48.072;11.616;2022-09-03T05:40:03;13.80;99.90
9225;DHT22;4647;48.072;11.616;2022-09-03T05:42:32;13.70;99.90
9225;DHT22;4647;48.072;11.616;2022-09-03T05:45:05;13.60;99.90
9225;DHT22;4647;48.072;11.616;2022-09-03T05:47:34;13.50;99.90
9225;DHT22;4647;48.072;11.616;2022-09-03T05:50:01;13.50;99.90
9225;DHT22;4647;48.072;11.616;2022-09-03T05:52:28;13.50;99.90
9225;DHT22;4647;48.072;11.616;2022-09-03T05:54:55;13.70;99.90
9225;DHT22;4647;48.072;11.616;2022-09-03T05:57:21;13.90;99.90
9225;DHT22;4647;48.072;11.616;2022-09-03T05:59:50;14.10;99.90
9225;DHT22;4647;48.072;11.616;2022-09-03T06:02:17;14.20;99.90
9225;DHT22;4647;48.072;11.616;2022-09-03T06:04:44;14.40;99.90
9225;DHT22;4647;48.072;11.616;2022-09-03T06:07:11;14.50;99.90
9225;DHT22;4647;48.072;11.616;2022-09-03T06:09:38;14.50;99.90
9225;DHT22;4647;48.072;11.616;2022-09-03T06:12:06;14.60;99.90
9225;DHT22;4647;48.072;11.616;2022-09-03T06:14:33;14.60;99.90
9225;DHT22;4647;48.072;11.616;2022-09-03T06:17:01;14.70;99.90
9225;DHT22;4647;48.072;11.616;2022-09-03T06:19:28;14.80;99.90
9225;DHT22;4647;48.072;11.616;2022-09-03T06:21:55;14.80;99.90
9225;DHT22;4647;48.072;11.616;2022-09-03T06:24:22;15.10;99.90
9225;DHT22;4647;48.072;11.616;2022-09-03T06:26:51;15.20;99.90
9225;DHT22;4647;48.072;11.616;2022-09-03T06:29:18;15.60;99.90
9225;DHT22;4647;48.072;11.616;2022-09-03T06:31:45;15.60;99.90
9225;DHT22;4647;48.072;11.616;2022-09-03T06:34:14;15.60;99.90
9225;DHT22;4647;48.072;11.616;2022-09-03T06:36:43;15.70;99.90
9225;DHT22;4647;48.072;11.616;2022-09-03T06:39:10;15.90;99.90
9225;DHT22;4647;48.072;11.616;2022-09-03T06:41:37;16.00;99.90
9225;DHT22;4647;48.072;11.616;2022-09-03T06:44:06;16.10;99.90
9225;DHT22;4647;48.072;11.616;2022-09-03T06:46:37;16.30;99.90
9225;DHT22;4647;48.072;11.616;2022-09-03T06:49:04;16.20;99.90
9225;DHT22;4647;48.072;11.616;2022-09-03T06:51:35;16.20;99.90
9225;DHT22;4647;48.072;11.616;2022-09-03T06:54:05;16.10;99.90
9225;DHT22;4647;48.072;11.616;2022-09-03T06:56:33;16.00;99.90
9225;DHT22;4647;48.072;11.616;2022-09-03T06:59:04;15.90;99.90
9225;DHT22;4647;48.072;11.616;2022-09-03T07:01:33;15.80;99.90
9225;DHT22;4647;48.072;11.616;2022-09-03T07:04:01;15.80;99.90
9225;DHT22;4647;48.072;11.616;2022-09-03T07:06:31;15.80;99.90
9225;DHT22;4647;48.072;11.616;2022-09-03T07:08:59;15.90;99.90
9225;DHT22;4647;48.072;11.616;2022-09-03T07:11:27;16.00;99.90
9225;DHT22;4647;48.072;11.616;2022-09-03T07:13:58;16.10;99.90
9225;DHT22;4647;48.072;11.616;2022-09-03T07:16:27;16.00;99.90
9225;DHT22;4647;48.072;11.616;2022-09-03T07:18:55;16.00;99.90
9225;DHT22;4647;48.072;11.616;2022-09-03T07:21:24;16.00;99.90
9225;DHT22;4647;48.072;11.616;2022-09-03T07:23:52;16.00;99.90
9225;DHT22;4647;48.072;11.616;2022-09-03T07:26:22;16.00;99.90
9225;DHT22;4647;48.072;11.616;2022-09-03T07:28:50;16.00;99.90
9225;DHT22;4647;48.072;11.616;2022-09-03T07:31:21;16.00;99.90
9225;DHT22;4647;48.072;11.616;2022-09-03T07:33:52;16.00;99.90
9225;DHT22;4647;48.072;11.616;2022-09-03T07:36:21;16.20;99.90
9225;DHT22;4647;48.072;11.616;2022-09-03T07:38:48;16.20;99.90
9225;DHT22;4647;48.072;11.616;2022-09-03T07:41:15;16.10;99.90
9225;DHT22;4647;48.072;11.616;2022-09-03T07:43:44;16.20;99.90
9225;DHT22;4647;48.072;11.616;2022-09-03T07:46:13;16.20;99.90
9225;DHT22;4647;48.072;11.616;2022-09-03T07:48:45;16.20;99.90
9225;DHT22;4647;48.072;11.616;2022-09-03T07:51:14;16.30;99.90
9225;DHT22;4647;48.072;11.616;2022-09-03T07:53:41;16.30;99.90
9225;DHT22;4647;48.072;11.616;2022-09-03T07:56:09;16.50;99.90
9225;DHT22;4647;48.072;11.616;2022-09-03T07:58:37;16.60;99.90
9225;DHT22;4647;48.072;11.616;2022-09-03T08:01:08;16.70;99.90
9225;DHT22;4647;48.072;11.616;2022-09-03T08:03:35;16.70;99.90
9225;DHT22;4647;48.072;11.616;2022-09-03T08:06:04;16.80;99.90
9225;DHT22;4647;48.072;11.616;2022-09-03T08:08:32;17.00;99.90
9225;DHT22;4647;48.072;11.616;2022-09-03T08:11:04;17.00;99.90
9225;DHT22;4647;48.072;11.616;2022-09-03T08:13:36;17.20;99.90
9225;DHT22;4647;48.072;11.616;2022-09-03T08:16:03;17.30;99.90
9225;DHT22;4647;48.072;11.616;2022-09-03T08:18:32;17.50;99.90
9225;DHT22;4647;48.072;11.616;2022-09-03T08:21:03;17.70;99.90
9225;DHT22;4647;48.072;11.616;2022-09-03T08:23:31;17.90;99.90
9225;DHT22;4647;48.072;11.616;2022-09-03T08:25:58;18.20;99.90
9225;DHT22;4647;48.072;11.616;2022-09-03T08:28:25;18.30;99.90
9225;DHT22;4647;48.072;11.616;2022-09-03T08:30:52;18.40;99.90
9225;DHT22;4647;48.072;11.616;2022-09-03T08:33:19;18.50;99.90
9225;DHT22;4647;48.072;11.616;2022-09-03T08:36:03;18.60;99.90
9225;DHT22;4647;48.072;11.616;2022-09-03T08:38:31;18.80;99.90
9225;DHT22;4647;48.072;11.616;2022-09-03T08:41:06;18.90;99.90
9225;DHT22;4647;48.072;11.616;2022-09-03T08:43:45;19.20;99.90
9225;DHT22;4647;48.072;11.616;2022-09-03T08:46:16;19.40;99.90
9225;DHT22;4647;48.072;11.616;2022-09-03T08:48:43;19.50;99.90
9225;DHT22;4647;48.072;11.616;2022-09-03T08:51:14;19.60;99.90
9225;DHT22;4647;48.072;11.616;2022-09-03T08:53:46;19.80;99.90
9225;DHT22;4647;48.072;11.616;2022-09-03T08:56:23;20.00;99.90
9225;DHT22;4647;48.072;11.616;2022-09-03T08:58:52;20.20;99.90
9225;DHT22;4647;48.072;11.616;2022-09-03T09:01:28;20.30;99.90
9225;DHT22;4647;48.072;11.616;2022-09-03T09:04:07;20.00;99.90
9225;DHT22;4647;48.072;11.616;2022-09-03T09:06:42;20.20;99.90
9225;DHT22;4647;48.072;11.616;2022-09-03T09:09:20;20.30;99.90
9225;DHT22;4647;48.072;11.616;2022-09-03T09:11:57;20.70;99.90
9225;DHT22;4647;48.072;11.616;2022-09-03T09:14:32;21.00;99.90
9225;DHT22;4647;48.072;11.616;2022-09-03T09:17:09;21.30;99.90
9225;DHT22;4647;48.072;11.616;2022-09-03T09:19:47;21.40;99.90
9225;DHT22;4647;48.072;11.616;2022-09-03T09:22:25;21.60;99.90
9225;DHT22;4647;48.072;11.616;2022-09-03T09:24:54;21.70;99.90
9225;DHT22;4647;48.072;11.616;2022-09-03T09:27:23;21.40;99.90
9225;DHT22;4647;48.072;11.616;2022-09-03T09:29:52;20.90;99.90
9225;DHT22;4647;48.072;11.616;2022-09-03T09:32:19;20.80;99.90
9225;DHT22;4647;48.072;11.616;2022-09-03T09:34:46;21.00;99.90
9225;DHT22;4647;48.072;11.616;2022-09-03T09:37:15;21.20;99.90
9225;DHT22;4647;48.072;11.616;2022-09-03T09:39:55;21.30;99.90
9225;DHT22;4647;48.072;11.616;2022-09-03T09:42:23;21.50;99.90
9225;DHT22;4647;48.072;11.616;2022-09-03T09:44:50;21.70;99.90
9225;DHT22;4647;48.072;11.616;2022-09-03T09:47:23;21.80;99.90
9225;DHT22;4647;48.072;11.616;2022-09-03T09:49:53;21.60;99.90
9225;DHT22;4647;48.072;11.616;2022-09-03T09:52:20;21.50;99.90
9225;DHT22;4647;48.072;11.616;2022-09-03T09:54:51;21.60;99.90
9225;DHT22;4647;48.072;11.616;2022-09-03T09:57:23;21.90;99.90
9225;DHT22;4647;48.072;11.616;2022-09-03T10:00:02;22.20;99.90
9225;DHT22;4647;48.072;11.616;2022-09-03T10:02:34;22.20;99.90
9225;DHT22;4647;48.072;11.616;2022-09-03T10:05:12;22.50;99.90
9225;DHT22;4647;48.072;11.616;2022-09-03T10:07:41;22.90;99.90
9225;DHT22;4647;48.072;11.616;2022-09-03T10:10:15;23.10;99.90
9225;DHT22;4647;48.072;11.616;2022-09-03T10:12:45;22.90;99.90
9225;DHT22;4647;48.072;11.616;2022-09-03T10:15:21;23.00;99.90
9225;DHT22;4647;48.072;11.616;2022-09-03T10:17:56;22.70;99.90
9225;DHT22;4647;48.072;11.616;2022-09-03T10:20:32;22.80;99.90
9225;DHT22;4647;48.072;11.616;2022-09-03T10:23:08;23.30;99.90
9225;DHT22;4647;48.072;11.616;2022-09-03T10:25:41;23.70;99.90
9225;DHT22;4647;48.072;11.616;2022-09-03T10:28:16;24.00;99.90
9225;DHT22;4647;48.072;11.616;2022-09-03T10:31:02;24.40;99.90
9225;DHT22;4647;48.072;11.616;2022-09-03T10:33:36;24.40;99.90
9225;DHT22;4647;48.072;11.616;2022-09-03T10:36:10;24.30;99.90
9225;DHT22;4647;48.072;11.616;2022-09-03T10:38:41;24.20;99.90
9225;DHT22;4647;48.072;11.616;2022-09-03T10:41:18;24.30;99.90
9225;DHT22;4647;48.072;11.616;2022-09-03T10:44:05;24.00;99.00
9225;DHT22;4647;48.072;11.616;2022-09-03T10:46:40;24.50;99.20
9225;DHT22;4647;48.072;11.616;2022-09-03T10:49:19;24.50;98.10
9225;DHT22;4647;48.072;11.616;2022-09-03T10:51:57;24.20;98.70
9225;DHT22;4647;48.072;11.616;2022-09-03T10:54:44;24.00;99.10
9225;DHT22;4647;48.072;11.616;2022-09-03T10:57:23;24.10;98.50
9225;DHT22;4647;48.072;11.616;2022-09-03T11:00:00;23.80;98.60
9225;DHT22;4647;48.072;11.616;2022-09-03T11:05:29;23.50;99.70
9225;DHT22;4647;48.072;11.616;2022-09-03T11:07:59;23.40;99.90
9225;DHT22;4647;48.072;11.616;2022-09-03T11:10:29;23.40;99.60
9225;DHT22;4647;48.072;11.616;2022-09-03T11:13:02;23.40;98.90
9225;DHT22;4647;48.072;11.616;2022-09-03T11:15:36;23.60;98.60
9225;DHT22;4647;48.072;11.616;2022-09-03T11:18:13;23.70;98.70
9225;DHT22;4647;48.072;11.616;2022-09-03T11:20:43;24.10;98.40
9225;DHT22;4647;48.072;11.616;2022-09-03T11:23:10;24.30;97.80
9225;DHT22;4647;48.072;11.616;2022-09-03T11:25:41;24.50;97.00
9225;DHT22;4647;48.072;11.616;2022-09-03T11:28:19;24.60;96.20
9225;DHT22;4647;48.072;11.616;2022-09-03T11:31:01;24.80;95.70
9225;DHT22;4647;48.072;11.616;2022-09-03T11:33:31;24.90;95.50
9225;DHT22;4647;48.072;11.616;2022-09-03T11:36:05;24.70;96.20
9225;DHT22;4647;48.072;11.616;2022-09-03T11:38:32;24.50;96.80
9225;DHT22;4647;48.072;11.616;2022-09-03T11:41:03;24.50;96.50
9225;DHT22;4647;48.072;11.616;2022-09-03T11:43:31;24.50;96.80
9225;DHT22;4647;48.072;11.616;2022-09-03T11:46:06;24.20;96.50
9225;DHT22;4647;48.072;11.616;2022-09-03T11:48:39;24.40;96.90
9225;DHT22;4647;48.072;11.616;2022-09-03T11:51:20;24.40;97.00
9225;DHT22;4647;48.072;11.616;2022-09-03T11:53:55;24.70;96.20
9225;DHT22;4647;48.072;11.616;2022-09-03T11:56:22;24.50;95.90
9225;DHT22;4647;48.072;11.616;2022-09-03T11:59:00;24.20;96.00
9225;DHT22;4647;48.072;11.616;2022-09-03T12:01:30;24.20;95.90
9225;DHT22;4647;48.072;11.616;2022-09-03T12:04:00;24.00;96.30
9225;DHT22;4647;48.072;11.616;2022-09-03T12:10:11;23.20;97.50
9225;DHT22;4647;48.072;11.616;2022-09-03T12:15:58;23.40;97.30
9225;DHT22;4647;48.072;11.616;2022-09-03T12:18:32;23.40;97.50
9225;DHT22;4647;48.072;11.616;2022-09-03T12:21:02;23.40;97.70
9225;DHT22;4647;48.072;11.616;2022-09-03T12:23:31;23.30;97.50
9225;DHT22;4647;48.072;11.616;2022-09-03T12:26:02;23.20;97.60
9225;DHT22;4647;48.072;11.616;2022-09-03T12:28:36;23.20;96.80
9225;DHT22;4647;48.072;11.616;2022-09-03T12:31:08;23.00;96.80
9225;DHT22;4647;48.072;11.616;2022-09-03T12:33:52;23.20;97.30
9225;DHT22;4647;48.072;11.616;2022-09-03T12:36:24;23.40;97.00
9225;DHT22;4647;48.072;11.616;2022-09-03T12:38:51;23.50;96.60
9225;DHT22;4647;48.072;11.616;2022-09-03T12:41:23;23.50;95.90
9225;DHT22;4647;48.072;11.616;2022-09-03T12:43:53;23.40;96.10
9225;DHT22;4647;48.072;11.616;2022-09-03T12:46:24;23.30;96.60
9225;DHT22;4647;48.072;11.616;2022-09-03T12:48:55;23.50;95.90
9225;DHT22;4647;48.072;11.616;2022-09-03T12:51:22;23.60;95.40
9225;DHT22;4647;48.072;11.616;2022-09-03T12:53:51;23.60;94.10
9225;DHT22;4647;48.072;11.616;2022-09-03T12:56:19;23.60;94.30
9225;DHT22;4647;48.072;11.616;2022-09-03T12:58:51;23.70;94.10
9225;DHT22;4647;48.072;11.616;2022-09-03T13:01:22;23.60;93.80
9225;DHT22;4647;48.072;11.616;2022-09-03T13:03:54;23.60;93.20
9225;DHT22;4647;48.072;11.616;2022-09-03T13:06:25;23.60;92.90
9225;DHT22;4647;48.072;11.616;2022-09-03T13:08:55;23.50;93.10
9225;DHT22;4647;48.072;11.616;2022-09-03T13:11:25;23.80;92.80
9225;DHT22;4647;48.072;11.616;2022-09-03T13:14:01;23.70;92.70
9225;DHT22;4647;48.072;11.616;2022-09-03T13:16:56;23.90;91.90
9225;DHT22;4647;48.072;11.616;2022-09-03T13:19:36;23.90;92.40
9225;DHT22;4647;48.072;11.616;2022-09-03T13:22:12;24.10;92.20
9225;DHT22;4647;48.072;11.616;2022-09-03T13:24:55;24.40;91.50
9225;DHT22;4647;48.072;11.616;2022-09-03T13:27:30;24.40;91.20
9225;DHT22;4647;48.072;11.616;2022-09-03T13:30:04;24.10;91.00
9225;DHT22;4647;48.072;11.616;2022-09-03T13:32:38;24.00;91.50
9225;DHT22;4647;48.072;11.616;2022-09-03T13:35:12;24.30;90.90
9225;DHT22;4647;48.072;11.616;2022-09-03T13:37:44;24.40;90.80
9225;DHT22;4647;48.072;11.616;2022-09-03T13:40:15;24.50;90.40
9225;DHT22;4647;48.072;11.616;2022-09-03T13:42:49;24.80;90.10
9225;DHT22;4647;48.072;11.616;2022-09-03T13:45:27;24.50;90.00
9225;DHT22;4647;48.072;11.616;2022-09-03T13:47:59;24.30;90.40
9225;DHT22;4647;48.072;11.616;2022-09-03T13:50:49;24.30;90.70
9225;DHT22;4647;48.072;11.616;2022-09-03T13:53:24;24.20;91.10
9225;DHT22;4647;48.072;11.616;2022-09-03T13:56:03;24.00;91.40
9225;DHT22;4647;48.072;11.616;2022-09-03T13:58:40;23.60;92.00
9225;DHT22;4647;48.072;11.616;2022-09-03T14:01:14;23.40;92.30
9225;DHT22;4647;48.072;11.616;2022-09-03T14:03:47;23.40;92.60
9225;DHT22;4647;48.072;11.616;2022-09-03T14:06:25;23.30;92.20
9225;DHT22;4647;48.072;11.616;2022-09-03T14:09:02;23.40;92.20
9225;DHT22;4647;48.072;11.616;2022-09-03T14:11:37;23.40;91.90
9225;DHT22;4647;48.072;11.616;2022-09-03T14:14:18;23.30;92.40
9225;DHT22;4647;48.072;11.616;2022-09-03T14:16:53;23.30;92.90
9225;DHT22;4647;48.072;11.616;2022-09-03T14:19:33;23.20;93.70
9225;DHT22;4647;48.072;11.616;2022-09-03T14:22:10;23.00;94.00
9225;DHT22;4647;48.072;11.616;2022-09-03T14:24:44;22.70;95.00
9225;DHT22;4647;48.072;11.616;2022-09-03T14:27:21;22.40;95.80
9225;DHT22;4647;48.072;11.616;2022-09-03T14:29:53;22.30;96.80
9225;DHT22;4647;48.072;11.616;2022-09-03T14:32:43;21.60;99.90
9225;DHT22;4647;48.072;11.616;2022-09-03T14:35:26;19.80;99.90
9225;DHT22;4647;48.072;11.616;2022-09-03T14:41:00;16.10;99.90
9225;DHT22;4647;48.072;11.616;2022-09-03T14:43:52;15.00;99.90
9225;DHT22;4647;48.072;11.616;2022-09-03T14:46:32;14.20;99.90
9225;DHT22;4647;48.072;11.616;2022-09-03T14:49:21;13.70;99.90
9225;DHT22;4647;48.072;11.616;2022-09-03T14:52:09;13.60;99.90
9225;DHT22;4647;48.072;11.616;2022-09-03T14:54:51;13.70;99.90
9225;DHT22;4647;48.072;11.616;2022-09-03T14:57:55;13.70;99.90
9225;DHT22;4647;48.072;11.616;2022-09-03T15:00:33;13.80;99.90
9225;DHT22;4647;48.072;11.616;2022-09-03T15:03:21;13.90;99.90
9225;DHT22;4647;48.072;11.616;2022-09-03T15:06:03;13.90;99.90
9225;DHT22;4647;48.072;11.616;2022-09-03T15:08:49;14.00;99.90
9225;DHT22;4647;48.072;11.616;2022-09-03T15:11:23;14.20;99.90
9225;DHT22;4647;48.072;11.616;2022-09-03T15:13:59;14.30;99.90
9225;DHT22;4647;48.072;11.616;2022-09-03T15:16:58;14.30;99.90
9225;DHT22;4647;48.072;11.616;2022-09-03T15:19:53;14.50;99.90
9225;DHT22;4647;48.072;11.616;2022-09-03T15:22:36;14.50;99.90
9225;DHT22;4647;48.072;11.616;2022-09-03T15:25:17;14.60;99.90
9225;DHT22;4647;48.072;11.616;2022-09-03T15:28:06;14.60;99.90
9225;DHT22;4647;48.072;11.616;2022-09-03T15:30:43;14.60;99.90
9225;DHT22;4647;48.072;11.616;2022-09-03T15:33:18;14.60;99.90
9225;DHT22;4647;48.072;11.616;2022-09-03T15:36:12;14.60;99.90
9225;DHT22;4647;48.072;11.616;2022-09-03T15:38:47;14.60;99.90
9225;DHT22;4647;48.072;11.616;2022-09-03T15:41:28;14.60;99.90
9225;DHT22;4647;48.072;11.616;2022-09-03T15:44:00;14.60;99.90
9225;DHT22;4647;48.072;11.616;2022-09-03T15:46:47;14.70;99.90
9225;DHT22;4647;48.072;11.616;2022-09-03T15:49:30;14.60;99.90
9225;DHT22;4647;48.072;11.616;2022-09-03T15:52:09;14.60;99.90
9225;DHT22;4647;48.072;11.616;2022-09-03T15:54:47;14.70;99.90
9225;DHT22;4647;48.072;11.616;2022-09-03T15:57:21;14.70;99.90
9225;DHT22;4647;48.072;11.616;2022-09-03T15:59:57;14.70;99.90
9225;DHT22;4647;48.072;11.616;2022-09-03T16:02:30;14.80;99.90
9225;DHT22;4647;48.072;11.616;2022-09-03T16:05:05;14.90;99.90
9225;DHT22;4647;48.072;11.616;2022-09-03T16:07:47;15.10;99.90
9225;DHT22;4647;48.072;11.616;2022-09-03T16:10:21;15.20;99.90
9225;DHT22;4647;48.072;11.616;2022-09-03T16:13:02;15.30;99.90
9225;DHT22;4647;48.072;11.616;2022-09-03T16:15:37;15.50;99.90
9225;DHT22;4647;48.072;11.616;2022-09-03T16:18:21;15.60;99.90
9225;DHT22;4647;48.072;11.616;2022-09-03T16:20:55;15.80;99.90
9225;DHT22;4647;48.072;11.616;2022-09-03T16:23:27;16.10;99.90
9225;DHT22;4647;48.072;11.616;2022-09-03T16:26:02;16.30;99.90
9225;DHT22;4647;48.072;11.616;2022-09-03T16:28:35;16.40;99.90
9225;DHT22;4647;48.072;11.616;2022-09-03T16:31:13;16.70;99.90
9225;DHT22;4647;48.072;11.616;2022-09-03T16:33:53;16.80;99.90
9225;DHT22;4647;48.072;11.616;2022-09-03T16:36:31;17.10;99.90
9225;DHT22;4647;48.072;11.616;2022-09-03T16:39:11;17.10;99.90